Time;durP1;ratioP1;P1;durP2;ratioP2;P2;SDS_P1;SDS_P2;PMS_P1;PMS_P2;Temp;Humidity;BMP_temperature;BMP_pressure;BME280_temperature;BME280_humidity;BME280_pressure;Samples;Min_cycle;Max_cycle;Signal;HPM_P1;HPM_P2
2021/09/26 00:00:59;;;;;;;7.47;6.77;;;21.00;99.90;;;;;;5053243;28;20442;-62
2021/09/26 00:03:25;;;;;;;7.07;6.47;;;21.10;99.90;;;;;;5053271;28;20265;-62
2021/09/26 00:05:51;;;;;;;7.77;6.73;;;21.00;99.90;;;;;;5052928;28;20210;-62
2021/09/26 00:08:16;;;;;;;6.73;6.03;;;21.10;99.90;;;;;;5053075;28;20273;-62
2021/09/26 00:10:42;;;;;;;6.77;5.53;;;21.10;99.90;;;;;;5053233;28;20171;-62
2021/09/26 00:13:07;;;;;;;6.83;6.17;;;21.20;99.90;;;;;;5053936;28;20185;-62
2021/09/26 00:15:33;;;;;;;7.17;6.47;;;21.20;99.90;;;;;;5052972;28;20206;-61
2021/09/26 00:17:59;;;;;;;9.57;6.73;;;21.20;99.90;;;;;;5051079;28;20197;-59
2021/09/26 00:20:25;;;;;;;6.70;6.00;;;21.10;99.90;;;;;;5033337;28;20211;-63
2021/09/26 00:22:51;;;;;;;6.83;6.00;;;21.00;99.90;;;;;;5033044;28;20504;-62
2021/09/26 00:25:20;;;;;;;8.17;7.33;;;21.20;99.90;;;;;;5033081;28;20501;-62
2021/09/26 00:27:46;;;;;;;7.33;5.80;;;21.20;99.90;;;;;;5032917;28;20569;-62
2021/09/26 00:30:14;;;;;;;7.20;6.50;;;21.40;99.90;;;;;;5033239;28;20414;-64
2021/09/26 00:32:41;;;;;;;6.93;6.07;;;21.40;99.90;;;;;;5032720;28;20421;-62
2021/09/26 00:35:07;;;;;;;7.10;6.50;;;21.10;99.90;;;;;;5032889;28;20446;-62
2021/09/26 00:37:32;;;;;;;6.93;6.20;;;21.10;99.90;;;;;;5033080;28;20418;-61
2021/09/26 00:39:58;;;;;;;7.47;6.50;;;21.20;99.90;;;;;;5035067;28;20785;-61
2021/09/26 00:42:24;;;;;;;6.70;6.00;;;21.20;99.90;;;;;;5037500;28;20175;-62
2021/09/26 00:44:50;;;;;;;10.27;6.17;;;21.00;99.90;;;;;;5037227;28;20270;-62
2021/09/26 00:47:15;;;;;;;7.37;6.77;;;21.00;99.90;;;;;;5043991;28;20198;-62
2021/09/26 00:49:41;;;;;;;6.17;5.57;;;20.80;99.90;;;;;;5055589;28;20174;-63
2021/09/26 00:52:07;;;;;;;8.67;6.90;;;20.80;99.90;;;;;;5056494;28;20675;-62
2021/09/26 00:54:35;;;;;;;8.33;6.97;;;20.70;99.90;;;;;;5057244;28;20167;-61
2021/09/26 00:57:02;;;;;;;6.77;6.13;;;20.70;99.90;;;;;;5056519;28;20712;-61
2021/09/26 00:59:27;;;;;;;10.33;6.60;;;20.80;99.90;;;;;;5057042;28;20772;-60
2021/09/26 01:01:53;;;;;;;6.87;6.13;;;20.60;99.90;;;;;;5056452;28;20409;-61
2021/09/26 01:04:19;;;;;;;7.17;6.57;;;20.70;99.90;;;;;;5056254;28;20539;-61
2021/09/26 01:07:08;;;;;;;7.30;6.60;;;20.80;99.90;;;;;;5056180;28;20651;-61
2021/09/26 01:10:07;;;;;;;7.13;6.43;;;20.80;99.90;;;;;;5056732;28;20397;-61
2021/09/26 01:13:00;;;;;;;7.63;6.40;;;20.90;99.90;;;;;;5054888;28;20427;-63
2021/09/26 01:16:17;;;;;;;7.90;6.13;;;20.90;99.90;;;;;;5056457;28;20491;-60
2021/09/26 01:18:52;;;;;;;6.73;6.10;;;20.90;99.90;;;;;;5054728;28;20504;-62
2021/09/26 01:21:20;;;;;;;8.50;7.20;;;20.90;99.90;;;;;;5050412;28;20861;-61
2021/09/26 01:23:58;;;;;;;8.33;7.37;;;20.80;99.90;;;;;;5036476;28;20410;-62
2021/09/26 01:26:40;;;;;;;7.00;6.30;;;20.60;99.90;;;;;;5036420;28;20413;-61
2021/09/26 01:29:09;;;;;;;6.67;6.03;;;20.70;99.90;;;;;;5036076;28;20397;-62
2021/09/26 01:31:39;;;;;;;8.40;6.87;;;20.60;99.90;;;;;;5036305;28;20844;-61
2021/09/26 01:34:13;;;;;;;8.37;5.83;;;20.70;99.90;;;;;;5035998;28;20410;-62
2021/09/26 01:36:49;;;;;;;9.10;6.97;;;20.70;99.90;;;;;;5036152;28;20521;-62
2021/09/26 01:39:22;;;;;;;7.10;6.10;;;20.60;99.90;;;;;;5036308;28;20382;-62
2021/09/26 01:42:18;;;;;;;7.57;6.87;;;20.40;99.90;;;;;;5036984;28;20775;-62
2021/09/26 01:44:54;;;;;;;7.30;6.60;;;20.40;99.90;;;;;;5028867;28;20422;-61
2021/09/26 01:47:29;;;;;;;7.27;6.57;;;20.40;99.90;;;;;;5036837;28;20425;-62
2021/09/26 01:49:58;;;;;;;6.60;6.00;;;20.20;99.90;;;;;;5048067;28;20425;-62
2021/09/26 01:52:29;;;;;;;15.83;7.30;;;20.20;99.90;;;;;;5054324;28;20902;-62
2021/09/26 01:54:56;;;;;;;7.33;6.60;;;20.20;99.90;;;;;;5055804;28;20386;-62
2021/09/26 01:57:22;;;;;;;7.10;6.60;;;20.10;99.90;;;;;;5055846;28;20536;-62
2021/09/26 01:59:57;;;;;;;8.00;6.63;;;20.00;99.90;;;;;;5055513;28;20886;-63
2021/09/26 02:02:25;;;;;;;7.73;6.43;;;19.90;99.90;;;;;;5055269;28;20400;-62
2021/09/26 02:05:00;;;;;;;7.90;7.10;;;19.80;99.90;;;;;;5055334;28;20408;-62
2021/09/26 02:07:39;;;;;;;7.73;7.00;;;19.60;99.90;;;;;;5055198;28;20424;-62
2021/09/26 02:10:06;;;;;;;6.97;6.37;;;19.60;99.90;;;;;;5055484;28;20819;-62
2021/09/26 02:12:32;;;;;;;8.10;7.40;;;19.50;99.90;;;;;;5055500;28;20926;-62
2021/09/26 02:14:59;;;;;;;7.67;6.97;;;19.50;99.90;;;;;;5055335;28;20746;-62
2021/09/26 02:17:27;;;;;;;6.50;5.93;;;19.40;99.90;;;;;;5051902;28;20433;-62
2021/09/26 02:19:59;;;;;;;7.80;6.97;;;19.30;99.90;;;;;;5055029;28;20413;-62
2021/09/26 02:22:30;;;;;;;9.23;7.03;;;19.40;99.90;;;;;;5054997;28;20451;-62
2021/09/26 02:24:58;;;;;;;7.50;6.80;;;19.40;99.90;;;;;;5055171;28;20919;-61
2021/09/26 02:27:24;;;;;;;7.83;7.13;;;19.50;99.90;;;;;;5055081;28;20434;-62
2021/09/26 02:29:50;;;;;;;7.40;6.80;;;19.40;99.90;;;;;;5054868;28;20416;-62
2021/09/26 02:32:16;;;;;;;8.73;6.70;;;19.30;99.90;;;;;;5055355;28;20389;-60
2021/09/26 02:34:41;;;;;;;8.60;7.27;;;19.40;99.90;;;;;;5054658;28;20220;-62
2021/09/26 02:37:07;;;;;;;9.67;7.37;;;19.30;99.90;;;;;;5054621;28;20284;-62
2021/09/26 02:39:33;;;;;;;7.83;7.13;;;19.20;99.90;;;;;;5054692;28;20246;-61
2021/09/26 02:42:07;;;;;;;8.93;8.13;;;19.00;99.90;;;;;;5054642;28;20163;-62
2021/09/26 02:44:41;;;;;;;7.93;7.17;;;19.00;99.90;;;;;;5055216;28;20154;-62
2021/09/26 02:47:15;;;;;;;7.83;7.07;;;18.80;99.90;;;;;;5054924;28;20428;-62
2021/09/26 02:49:42;;;;;;;9.10;8.30;;;18.80;99.90;;;;;;5054372;28;20397;-62
2021/09/26 02:52:10;;;;;;;7.93;6.80;;;18.90;99.90;;;;;;5054125;28;20419;-62
2021/09/26 02:54:38;;;;;;;8.00;7.20;;;18.90;99.90;;;;;;5054667;28;20765;-62
2021/09/26 02:57:06;;;;;;;8.20;7.37;;;18.90;99.90;;;;;;5054251;28;21008;-63
2021/09/26 02:59:32;;;;;;;12.20;7.43;;;18.80;99.90;;;;;;5054507;28;20413;-62
2021/09/26 03:01:57;;;;;;;7.70;7.00;;;18.80;99.90;;;;;;5053920;28;20435;-62
2021/09/26 03:04:23;;;;;;;9.40;7.50;;;18.80;99.90;;;;;;5054186;28;20484;-62
2021/09/26 03:06:49;;;;;;;7.73;7.03;;;18.80;99.90;;;;;;5053959;28;20178;-62
2021/09/26 03:09:15;;;;;;;8.10;7.40;;;18.70;99.90;;;;;;5054143;28;20583;-62
2021/09/26 03:11:41;;;;;;;8.57;7.70;;;18.70;99.90;;;;;;5054117;28;20416;-62
2021/09/26 03:14:07;;;;;;;8.73;7.63;;;18.70;99.90;;;;;;5054558;28;20167;-60
2021/09/26 03:16:32;;;;;;;7.40;6.67;;;18.70;99.90;;;;;;5053802;28;20464;-62
2021/09/26 03:18:58;;;;;;;8.90;7.33;;;18.70;99.90;;;;;;5053835;28;20173;-62
2021/09/26 03:21:27;;;;;;;10.63;7.60;;;18.70;99.90;;;;;;5053565;28;20170;-62
2021/09/26 03:23:53;;;;;;;9.00;7.77;;;18.70;99.90;;;;;;5053843;28;20500;-62
2021/09/26 03:26:18;;;;;;;8.80;7.60;;;18.60;99.90;;;;;;5053686;28;20531;-61
2021/09/26 03:28:44;;;;;;;9.67;8.40;;;18.50;99.90;;;;;;5053675;28;20351;-61
2021/09/26 03:31:09;;;;;;;10.13;9.10;;;18.40;99.90;;;;;;5053918;28;20171;-61
2021/09/26 03:33:35;;;;;;;9.67;8.60;;;18.30;99.90;;;;;;5053493;28;20178;-61
2021/09/26 03:36:00;;;;;;;9.80;7.80;;;18.30;99.90;;;;;;5053247;28;20593;-61
2021/09/26 03:38:26;;;;;;;8.50;7.70;;;18.30;99.90;;;;;;5053539;28;20186;-60
2021/09/26 03:40:51;;;;;;;10.30;8.20;;;18.30;99.90;;;;;;5054031;28;20163;-61
2021/09/26 03:43:17;;;;;;;7.83;7.03;;;18.40;99.90;;;;;;5054021;28;20194;-61
2021/09/26 03:45:49;;;;;;;8.67;7.80;;;18.40;99.90;;;;;;5053754;28;20237;-62
2021/09/26 03:48:19;;;;;;;7.80;7.00;;;18.40;99.90;;;;;;5053547;28;20217;-61
2021/09/26 03:50:44;;;;;;;9.43;7.57;;;18.40;99.90;;;;;;5053362;28;20830;-61
2021/09/26 03:53:10;;;;;;;8.00;6.70;;;18.40;99.90;;;;;;5053299;28;20441;-61
2021/09/26 03:55:36;;;;;;;8.83;8.03;;;18.20;99.90;;;;;;5053182;28;20281;-58
2021/09/26 03:58:02;;;;;;;8.30;7.27;;;18.10;99.90;;;;;;5095533;22;20259;-57
2021/09/26 04:00:28;;;;;;;8.83;7.30;;;18.20;99.90;;;;;;5080414;28;20772;-58
2021/09/26 04:02:53;;;;;;;7.50;6.90;;;18.30;99.90;;;;;;5073429;28;20400;-56
2021/09/26 04:05:19;;;;;;;7.50;6.73;;;18.30;99.90;;;;;;5072494;28;20310;-57
2021/09/26 04:07:45;;;;;;;8.10;7.33;;;18.20;99.90;;;;;;5081462;28;20193;-58
2021/09/26 04:10:11;;;;;;;8.83;7.83;;;18.30;99.90;;;;;;5073678;28;20558;-58
2021/09/26 04:12:37;;;;;;;8.13;7.33;;;18.30;99.90;;;;;;5080633;28;20237;-58
2021/09/26 04:15:04;;;;;;;10.60;8.33;;;18.20;99.90;;;;;;5092840;28;20407;-57
2021/09/26 04:17:30;;;;;;;9.27;8.37;;;18.20;99.90;;;;;;5093295;28;20510;-56
2021/09/26 04:19:55;;;;;;;8.33;7.63;;;18.10;99.90;;;;;;5093364;28;20888;-58
2021/09/26 04:22:21;;;;;;;9.23;8.33;;;18.00;99.90;;;;;;5088344;28;20171;-58
2021/09/26 04:24:47;;;;;;;9.33;7.87;;;17.90;99.90;;;;;;5068564;28;20165;-57
2021/09/26 04:27:12;;;;;;;9.70;8.27;;;17.90;99.90;;;;;;5093520;28;20234;-57
2021/09/26 04:29:38;;;;;;;10.27;7.00;;;17.90;99.90;;;;;;5093383;28;20169;-57
2021/09/26 04:32:04;;;;;;;8.90;8.00;;;17.90;99.90;;;;;;5093586;28;20177;-58
2021/09/26 04:34:29;;;;;;;7.73;6.80;;;17.80;99.90;;;;;;5092997;28;20165;-57
2021/09/26 04:36:56;;;;;;;9.00;7.70;;;17.80;99.90;;;;;;5076864;28;20470;-57
2021/09/26 04:39:22;;;;;;;10.20;8.50;;;17.80;99.90;;;;;;5072874;28;20170;-57
2021/09/26 04:41:47;;;;;;;8.90;7.90;;;17.80;99.90;;;;;;5073026;28;20495;-56
2021/09/26 04:44:13;;;;;;;8.43;7.60;;;17.80;99.90;;;;;;5073250;28;20845;-58
2021/09/26 04:46:39;;;;;;;7.87;7.07;;;17.80;99.90;;;;;;5072996;28;20166;-57
2021/09/26 04:49:04;;;;;;;9.83;8.70;;;17.70;99.90;;;;;;5073012;28;20233;-56
2021/09/26 04:51:30;;;;;;;8.50;7.60;;;17.60;99.90;;;;;;5072517;28;20528;-56
2021/09/26 04:53:56;;;;;;;8.77;7.87;;;17.60;99.90;;;;;;5072931;28;20185;-56
2021/09/26 04:56:21;;;;;;;9.23;8.30;;;17.60;99.90;;;;;;5072987;28;20205;-54
2021/09/26 04:58:47;;;;;;;8.30;7.50;;;17.70;99.90;;;;;;5072540;28;20288;-54
2021/09/26 05:01:13;;;;;;;8.80;8.00;;;17.70;99.90;;;;;;5079252;28;20192;-56
2021/09/26 05:03:39;;;;;;;14.27;9.07;;;17.80;99.90;;;;;;5092931;28;20176;-56
2021/09/26 05:06:04;;;;;;;10.13;7.43;;;17.90;99.90;;;;;;5083860;28;20180;-55
2021/09/26 05:08:30;;;;;;;6.83;6.23;;;17.90;99.90;;;;;;5073164;28;20232;-57
2021/09/26 05:10:55;;;;;;;9.80;7.33;;;18.00;99.90;;;;;;5072870;28;20188;-55
2021/09/26 05:13:21;;;;;;;8.17;7.13;;;18.00;99.90;;;;;;5072736;28;20162;-55
2021/09/26 05:15:47;;;;;;;10.30;7.87;;;18.00;99.90;;;;;;5072897;28;20205;-55
2021/09/26 05:18:12;;;;;;;10.13;9.13;;;18.00;99.90;;;;;;5072553;28;20331;-56
2021/09/26 05:20:38;;;;;;;10.97;9.60;;;17.70;99.90;;;;;;5072357;28;20166;-56
2021/09/26 05:23:03;;;;;;;9.27;8.20;;;17.80;99.90;;;;;;5073008;28;20642;-58
2021/09/26 05:25:29;;;;;;;13.43;8.90;;;17.70;99.90;;;;;;5073902;28;20170;-57
2021/09/26 05:27:55;;;;;;;10.03;8.17;;;17.70;99.90;;;;;;5076356;28;20196;-56
2021/09/26 05:30:21;;;;;;;8.30;7.50;;;17.60;99.90;;;;;;5074896;28;20515;-56
2021/09/26 05:32:46;;;;;;;11.83;9.20;;;17.60;99.90;;;;;;5076075;28;20166;-58
2021/09/26 05:35:12;;;;;;;8.73;7.67;;;17.50;99.90;;;;;;5074264;28;20219;-57
2021/09/26 05:37:38;;;;;;;10.90;8.63;;;17.50;99.90;;;;;;5055815;28;20535;-54
2021/09/26 05:40:05;;;;;;;10.67;9.10;;;17.60;99.90;;;;;;5056352;28;20404;-58
2021/09/26 05:42:31;;;;;;;10.33;8.50;;;17.70;99.90;;;;;;5056195;28;20178;-58
2021/09/26 05:44:57;;;;;;;14.00;10.00;;;17.80;99.90;;;;;;5056167;28;20886;-56
2021/09/26 05:47:22;;;;;;;10.13;9.07;;;17.70;99.90;;;;;;5054987;28;20270;-58
2021/09/26 05:49:48;;;;;;;11.87;9.47;;;17.70;99.90;;;;;;5055814;28;20450;-54
2021/09/26 05:52:14;;;;;;;12.73;10.20;;;17.80;99.90;;;;;;5055847;28;20502;-58
2021/09/26 05:54:40;;;;;;;10.50;9.50;;;17.80;99.90;;;;;;5056005;28;20200;-57
2021/09/26 05:57:06;;;;;;;11.80;9.13;;;17.80;99.90;;;;;;5056092;28;20210;-57
2021/09/26 05:59:37;;;;;;;13.80;9.50;;;17.70;99.90;;;;;;5055971;28;20776;-56
2021/09/26 06:02:04;;;;;;;9.50;8.60;;;17.70;99.90;;;;;;5082632;28;20914;-57
2021/09/26 06:04:29;;;;;;;9.87;8.97;;;17.60;99.90;;;;;;5095948;28;20396;-58
2021/09/26 06:06:56;;;;;;;12.60;8.50;;;17.70;99.90;;;;;;5080158;28;20527;-57
2021/09/26 06:09:21;;;;;;;11.40;10.07;;;17.70;99.90;;;;;;5075904;28;20689;-58
2021/09/26 06:11:47;;;;;;;11.93;8.67;;;17.60;99.90;;;;;;5076065;28;20464;-58
2021/09/26 06:14:12;;;;;;;11.07;10.00;;;17.60;99.90;;;;;;5075563;28;20507;-55
2021/09/26 06:16:38;;;;;;;9.13;8.20;;;17.70;99.90;;;;;;5075583;28;20186;-57
2021/09/26 06:19:03;;;;;;;11.07;9.40;;;17.80;99.90;;;;;;5075255;28;20158;-58
2021/09/26 06:21:29;;;;;;;9.70;8.67;;;18.00;99.90;;;;;;5075042;28;20190;-58
2021/09/26 06:23:54;;;;;;;9.90;8.57;;;18.00;99.90;;;;;;5075235;28;20531;-57
2021/09/26 06:26:22;;;;;;;9.27;8.37;;;18.10;99.90;;;;;;5072393;28;20170;-57
2021/09/26 06:28:50;;;;;;;9.50;8.03;;;18.20;99.90;;;;;;5055492;28;20290;-57
2021/09/26 06:31:16;;;;;;;8.50;7.70;;;18.30;99.90;;;;;;5053762;28;20413;-56
2021/09/26 06:33:42;;;;;;;9.20;7.87;;;18.40;99.90;;;;;;5055058;28;20619;-57
2021/09/26 06:36:07;;;;;;;10.53;9.37;;;18.50;99.90;;;;;;5063795;28;20447;-56
2021/09/26 06:38:34;;;;;;;12.80;9.80;;;18.40;99.90;;;;;;5074281;28;20208;-57
2021/09/26 06:40:59;;;;;;;8.70;7.80;;;18.30;99.90;;;;;;5074790;28;20449;-58
2021/09/26 06:43:25;;;;;;;8.93;8.00;;;18.30;99.90;;;;;;5074824;28;20392;-57
2021/09/26 06:45:50;;;;;;;8.70;7.90;;;18.50;99.90;;;;;;5074750;28;20170;-58
2021/09/26 06:48:16;;;;;;;9.03;8.13;;;18.60;99.90;;;;;;5074955;28;20277;-55
2021/09/26 06:50:42;;;;;;;8.20;7.30;;;18.80;99.90;;;;;;5074145;28;20170;-57
2021/09/26 06:53:08;;;;;;;8.80;8.00;;;18.90;99.90;;;;;;5075157;28;20174;-58
2021/09/26 06:55:33;;;;;;;8.40;7.70;;;19.10;99.90;;;;;;5074656;28;20443;-58
2021/09/26 06:57:59;;;;;;;8.40;7.60;;;19.20;99.90;;;;;;5074392;28;20577;-57
2021/09/26 07:00:24;;;;;;;8.00;7.23;;;19.30;99.90;;;;;;5073412;28;20177;-58
2021/09/26 07:02:52;;;;;;;8.40;7.60;;;19.60;99.90;;;;;;5075128;28;20557;-58
2021/09/26 07:05:18;;;;;;;8.07;7.27;;;19.80;99.90;;;;;;5077926;28;20169;-57
2021/09/26 07:07:46;;;;;;;9.23;6.70;;;19.90;99.90;;;;;;5073916;28;20439;-57
2021/09/26 07:10:12;;;;;;;8.63;7.73;;;20.00;99.90;;;;;;5074128;28;20404;-57
2021/09/26 07:12:38;;;;;;;8.77;7.03;;;20.10;99.90;;;;;;5073064;28;20404;-57
2021/09/26 07:15:04;;;;;;;8.37;7.57;;;20.20;99.90;;;;;;5074078;28;20457;-57
2021/09/26 07:17:31;;;;;;;8.20;6.80;;;20.30;99.90;;;;;;5080408;28;20966;-57
2021/09/26 07:19:56;;;;;;;7.77;7.00;;;20.40;99.90;;;;;;5094260;28;20486;-57
2021/09/26 07:22:25;;;;;;;9.00;8.17;;;20.50;99.90;;;;;;5093977;28;20445;-58
2021/09/26 07:24:52;;;;;;;8.33;7.30;;;20.70;99.90;;;;;;5092960;28;20261;-56
2021/09/26 07:27:22;;;;;;;8.23;7.43;;;20.80;99.90;;;;;;5094335;28;20433;-57
2021/09/26 07:29:48;;;;;;;9.40;8.40;;;20.90;99.90;;;;;;5094507;28;20427;-56
2021/09/26 07:32:14;;;;;;;8.73;7.87;;;21.10;99.90;;;;;;5094573;28;20412;-57
2021/09/26 07:34:41;;;;;;;8.50;7.70;;;21.20;99.90;;;;;;5093710;28;20472;-55
2021/09/26 07:37:07;;;;;;;8.33;7.53;;;21.40;99.90;;;;;;5075978;28;21049;-57
2021/09/26 07:39:33;;;;;;;8.63;7.83;;;21.60;99.90;;;;;;5073657;28;20404;-57
2021/09/26 07:41:58;;;;;;;8.57;7.80;;;21.60;99.90;;;;;;5074012;28;20526;-57
2021/09/26 07:44:24;;;;;;;8.50;7.57;;;21.70;99.90;;;;;;5073855;28;20170;-57
2021/09/26 07:46:50;;;;;;;7.80;7.10;;;21.80;99.90;;;;;;5073588;28;20681;-55
2021/09/26 07:49:16;;;;;;;10.43;7.17;;;21.90;99.90;;;;;;5072574;28;20649;-57
2021/09/26 07:51:42;;;;;;;7.53;6.83;;;21.90;99.90;;;;;;5073308;28;20170;-56
2021/09/26 07:54:07;;;;;;;7.90;6.77;;;22.10;99.90;;;;;;5080981;28;20432;-56
2021/09/26 07:56:33;;;;;;;8.57;7.70;;;22.20;99.90;;;;;;5093709;28;20204;-57
2021/09/26 07:58:59;;;;;;;10.57;7.20;;;22.40;99.90;;;;;;5093860;28;20230;-56
2021/09/26 08:01:24;;;;;;;7.57;6.10;;;22.60;99.90;;;;;;5093902;28;20165;-56
2021/09/26 08:03:50;;;;;;;9.27;7.03;;;22.70;99.90;;;;;;5094642;28;20676;-58
2021/09/26 08:06:18;;;;;;;16.77;7.23;;;22.80;99.90;;;;;;5082965;28;20209;-56
2021/09/26 08:08:43;;;;;;;8.37;6.57;;;22.60;99.90;;;;;;5072193;28;20665;-57
2021/09/26 08:11:09;;;;;;;7.40;6.73;;;22.40;99.90;;;;;;5073332;28;20495;-58
2021/09/26 08:13:35;;;;;;;8.57;7.77;;;22.50;99.90;;;;;;5073193;28;20513;-58
2021/09/26 08:16:01;;;;;;;7.30;6.60;;;22.70;99.90;;;;;;5073104;28;20277;-58
2021/09/26 08:18:27;;;;;;;8.63;7.10;;;22.90;99.90;;;;;;5071782;28;20182;-57
2021/09/26 08:20:53;;;;;;;7.50;6.70;;;23.20;99.90;;;;;;5072835;28;20404;-58
2021/09/26 08:23:18;;;;;;;7.10;6.40;;;23.30;99.90;;;;;;5073123;28;20392;-57
2021/09/26 08:25:45;;;;;;;6.73;6.03;;;23.10;99.90;;;;;;5058016;28;20171;-55
2021/09/26 08:28:11;;;;;;;6.20;5.70;;;23.20;99.90;;;;;;5053649;28;20281;-58
2021/09/26 08:30:38;;;;;;;8.30;7.10;;;23.10;99.90;;;;;;5052939;28;20409;-57
2021/09/26 08:33:04;;;;;;;9.23;7.03;;;23.10;99.90;;;;;;5051681;28;20410;-58
2021/09/26 08:35:30;;;;;;;7.87;7.07;;;23.40;99.90;;;;;;5056959;28;20500;-58
2021/09/26 08:37:56;;;;;;;10.10;7.40;;;23.50;99.90;;;;;;5072889;28;20431;-57
2021/09/26 08:40:22;;;;;;;7.50;6.80;;;23.20;99.90;;;;;;5074016;28;20407;-57
2021/09/26 08:42:48;;;;;;;7.03;6.33;;;23.30;99.90;;;;;;5055818;28;20463;-56
2021/09/26 08:45:17;;;;;;;10.07;6.57;;;23.40;99.90;;;;;;5052836;28;20812;-57
2021/09/26 08:47:44;;;;;;;6.90;6.30;;;23.60;99.90;;;;;;5053109;28;20218;-57
2021/09/26 08:50:12;;;;;;;9.90;7.20;;;23.70;99.90;;;;;;5052732;28;20408;-57
2021/09/26 08:52:38;;;;;;;7.47;6.67;;;23.90;99.90;;;;;;5052200;28;20424;-56
2021/09/26 08:55:04;;;;;;;6.30;5.70;;;24.20;99.90;;;;;;5082345;28;20399;-57
2021/09/26 08:57:30;;;;;;;7.90;5.93;;;24.20;99.90;;;;;;5092147;28;20201;-57
2021/09/26 08:59:55;;;;;;;6.70;5.83;;;24.50;99.90;;;;;;5092780;28;20759;-59
2021/09/26 09:02:21;;;;;;;8.60;7.27;;;24.70;99.90;;;;;;5096782;28;20173;-56
2021/09/26 09:04:47;;;;;;;11.47;6.77;;;24.50;99.90;;;;;;5096607;28;20173;-56
2021/09/26 09:07:13;;;;;;;7.57;6.37;;;24.30;99.90;;;;;;5096294;28;20181;-57
2021/09/26 09:09:59;;;;;;;10.47;7.10;;;24.20;99.90;;;;;;5096658;28;20225;-56
2021/09/26 09:12:36;;;;;;;12.10;7.30;;;24.10;99.90;;;;;;5071316;28;20174;-57
2021/09/26 09:15:13;;;;;;;8.30;6.97;;;23.90;99.90;;;;;;5056034;28;20476;-57
2021/09/26 09:17:41;;;;;;;6.70;6.00;;;23.70;99.90;;;;;;5056571;28;20528;-55
2021/09/26 09:20:24;;;;;;;7.60;7.00;;;23.60;99.90;;;;;;5057174;28;20492;-55
2021/09/26 09:22:54;;;;;;;7.30;6.60;;;23.70;99.90;;;;;;5064264;28;20439;-54
2021/09/26 09:25:38;;;;;;;7.83;6.70;;;23.70;99.90;;;;;;5071581;28;20433;-58
2021/09/26 09:28:11;;;;;;;7.53;6.50;;;23.80;99.90;;;;;;5038356;28;20440;-56
2021/09/26 09:31:01;;;;;;;7.60;6.80;;;23.70;99.90;;;;;;5055213;28;20905;-54
2021/09/26 09:33:46;;;;;;;8.80;8.03;;;23.60;99.90;;;;;;5054755;28;20962;-56
2021/09/26 09:36:23;;;;;;;8.60;7.80;;;23.50;99.90;;;;;;5055256;28;20503;-59
2021/09/26 09:38:51;;;;;;;10.23;7.73;;;23.30;99.90;;;;;;5055857;28;20558;-54
2021/09/26 09:41:35;;;;;;;8.63;7.53;;;23.30;99.90;;;;;;5066086;28;21920;-56
2021/09/26 09:44:02;;;;;;;10.23;9.23;;;23.60;99.90;;;;;;5055589;28;20406;-55
2021/09/26 09:46:34;;;;;;;9.60;8.60;;;23.60;99.90;;;;;;5055921;28;20551;-56
2021/09/26 09:49:20;;;;;;;9.33;8.53;;;23.40;99.90;;;;;;5055621;28;20405;-56
2021/09/26 09:51:52;;;;;;;8.90;8.10;;;23.50;99.90;;;;;;5055326;28;20905;-56
2021/09/26 09:54:38;;;;;;;9.43;8.63;;;23.40;99.90;;;;;;5055669;28;20910;-55
2021/09/26 09:59:35;;;;;;;11.00;10.00;;;23.00;99.90;;;;;;4993361;28;20530;-60
2021/09/26 10:02:01;;;;;;;10.80;9.87;;;22.90;99.90;;;;;;4994910;28;20416;-62
2021/09/26 10:04:38;;;;;;;10.63;9.73;;;22.90;99.90;;;;;;4996021;28;20400;-59
2021/09/26 10:07:21;;;;;;;10.27;9.47;;;22.90;99.90;;;;;;4995925;28;20506;-60
2021/09/26 10:09:49;;;;;;;11.20;10.17;;;22.90;99.90;;;;;;4976733;28;20405;-60
2021/09/26 10:12:26;;;;;;;11.93;10.80;;;22.80;99.90;;;;;;4974585;28;20918;-61
2021/09/26 10:14:58;;;;;;;10.70;9.80;;;22.50;99.90;;;;;;4976547;28;20443;-60
2021/09/26 10:17:25;;;;;;;11.23;10.20;;;22.30;99.90;;;;;;4976235;28;22264;-60
2021/09/26 10:19:51;;;;;;;12.37;11.23;;;22.50;99.90;;;;;;4974570;28;20421;-60
2021/09/26 10:22:18;;;;;;;12.13;11.03;;;22.30;99.90;;;;;;4976123;28;20420;-58
2021/09/26 10:24:55;;;;;;;11.00;10.00;;;22.30;99.90;;;;;;4976058;28;20408;-60
2021/09/26 10:27:22;;;;;;;12.47;11.33;;;22.40;99.90;;;;;;4975909;28;20393;-60
2021/09/26 10:29:52;;;;;;;12.30;11.30;;;22.20;99.90;;;;;;4976292;28;20780;-60
2021/09/26 10:32:19;;;;;;;12.30;11.00;;;22.20;99.90;;;;;;4976120;28;20439;-60
2021/09/26 10:34:45;;;;;;;11.37;10.43;;;22.10;99.90;;;;;;4975798;28;20428;-60
2021/09/26 10:37:13;;;;;;;11.63;10.53;;;22.20;99.90;;;;;;4975895;28;20824;-60
2021/09/26 10:39:39;;;;;;;10.03;9.23;;;22.20;99.90;;;;;;4976195;28;20169;-58
2021/09/26 10:42:14;;;;;;;11.50;10.40;;;22.40;99.90;;;;;;4975216;28;20826;-59
2021/09/26 10:45:04;;;;;;;10.60;9.60;;;22.40;99.90;;;;;;4976030;28;20503;-57
2021/09/26 10:47:34;;;;;;;12.73;11.50;;;22.70;99.90;;;;;;4975990;28;20945;-60
2021/09/26 10:50:15;;;;;;;10.70;9.70;;;22.60;99.90;;;;;;4975854;28;20447;-60
2021/09/26 10:52:42;;;;;;;10.10;9.13;;;22.50;99.90;;;;;;4974963;28;20489;-61
2021/09/26 10:55:14;;;;;;;11.70;10.60;;;22.40;99.90;;;;;;4976119;28;20556;-61
2021/09/26 10:57:41;;;;;;;11.53;10.43;;;22.20;99.90;;;;;;4975722;28;20539;-60
2021/09/26 11:00:07;;;;;;;10.93;9.77;;;22.20;99.90;;;;;;4975560;28;20483;-58
2021/09/26 11:02:35;;;;;;;10.70;9.70;;;22.10;99.90;;;;;;4975697;28;20456;-60
2021/09/26 11:05:04;;;;;;;11.47;10.37;;;22.00;99.90;;;;;;4975647;28;20467;-61
2021/09/26 11:07:46;;;;;;;10.77;9.70;;;21.90;99.90;;;;;;4975223;28;20444;-61
2021/09/26 11:10:13;;;;;;;11.83;10.67;;;21.80;99.90;;;;;;4975625;28;20498;-59
2021/09/26 11:12:44;;;;;;;11.87;10.33;;;21.90;99.90;;;;;;4975234;28;20423;-60
2021/09/26 11:15:18;;;;;;;10.17;9.30;;;21.90;99.90;;;;;;4975311;28;20408;-61
2021/09/26 11:17:48;;;;;;;11.20;10.20;;;21.70;99.90;;;;;;4975512;28;20957;-60
2021/09/26 11:20:36;;;;;;;10.13;9.20;;;21.60;99.90;;;;;;4975171;28;20456;-60
2021/09/26 11:23:05;;;;;;;12.10;10.97;;;21.80;99.90;;;;;;4973915;28;20429;-60
2021/09/26 11:26:03;;;;;;;10.80;9.80;;;21.70;99.90;;;;;;4975413;28;20427;-61
2021/09/26 11:28:38;;;;;;;11.53;10.43;;;21.60;99.90;;;;;;4975134;28;20523;-61
2021/09/26 11:31:11;;;;;;;11.57;10.57;;;21.50;99.90;;;;;;4975327;28;20487;-59
2021/09/26 11:34:03;;;;;;;13.53;11.30;;;21.70;99.90;;;;;;4975240;28;20392;-61
2021/09/26 11:36:29;;;;;;;12.67;11.47;;;21.90;99.90;;;;;;4974656;28;20456;-60
2021/09/26 11:38:56;;;;;;;12.03;10.93;;;22.10;99.90;;;;;;4973197;28;20443;-61
2021/09/26 11:41:38;;;;;;;11.23;10.10;;;21.90;99.90;;;;;;4975038;28;20409;-61
2021/09/26 11:44:06;;;;;;;11.00;9.90;;;22.00;99.90;;;;;;4974829;28;20417;-61
2021/09/26 11:46:32;;;;;;;10.67;9.60;;;22.00;99.90;;;;;;4974778;28;20499;-60
2021/09/26 11:49:07;;;;;;;10.20;9.40;;;22.00;99.90;;;;;;4974530;28;20451;-60
2021/09/26 11:51:34;;;;;;;11.13;10.13;;;22.10;99.90;;;;;;4974930;28;20447;-61
2021/09/26 11:54:02;;;;;;;10.33;9.43;;;22.10;99.90;;;;;;4974271;28;20420;-60
2021/09/26 11:56:31;;;;;;;11.07;10.07;;;22.30;99.90;;;;;;4974741;28;20452;-61
2021/09/26 11:59:09;;;;;;;11.50;10.50;;;22.50;99.90;;;;;;4974440;28;21015;-60
2021/09/26 12:01:46;;;;;;;12.07;10.97;;;22.40;99.90;;;;;;4974873;28;20389;-60
2021/09/26 12:04:17;;;;;;;10.03;9.13;;;22.40;99.90;;;;;;4974753;28;20816;-60
2021/09/26 12:06:59;;;;;;;9.30;8.40;;;22.50;99.90;;;;;;4974399;28;20392;-60
2021/09/26 12:09:51;;;;;;;11.00;10.00;;;22.70;99.90;;;;;;4973996;28;20428;-60
2021/09/26 12:12:26;;;;;;;11.03;10.13;;;23.00;99.90;;;;;;4973549;28;20836;-61
2021/09/26 12:15:04;;;;;;;8.83;8.03;;;23.30;99.90;;;;;;4973872;28;20420;-62
2021/09/26 12:17:32;;;;;;;8.97;8.07;;;23.90;99.90;;;;;;4969595;28;20491;-59
2021/09/26 12:20:04;;;;;;;9.80;8.80;;;24.40;99.90;;;;;;4974205;28;20437;-60
2021/09/26 12:22:30;;;;;;;8.43;7.63;;;24.70;99.90;;;;;;4972969;28;20439;-60
2021/09/26 12:25:02;;;;;;;8.03;7.40;;;25.70;99.90;;;;;;4957484;28;20533;-61
2021/09/26 12:27:41;;;;;;;8.23;7.53;;;26.50;99.90;;;;;;4955296;28;20441;-60
2021/09/26 12:30:16;;;;;;;7.10;6.40;;;27.70;99.90;;;;;;4954993;28;20421;-61
2021/09/26 12:33:04;;;;;;;7.17;6.57;;;28.60;99.90;;;;;;4955455;28;20472;-61
2021/09/26 12:35:36;;;;;;;7.00;6.40;;;29.00;99.90;;;;;;4955981;28;20453;-61
2021/09/26 12:38:11;;;;;;;8.30;7.27;;;28.70;99.90;;;;;;4958361;28;20436;-62
2021/09/26 12:40:38;;;;;;;7.67;7.00;;;28.30;99.90;;;;;;4958896;28;20389;-61
2021/09/26 12:43:06;;;;;;;6.87;6.37;;;27.40;99.90;;;;;;4958695;28;20413;-61
2021/09/26 12:45:43;;;;;;;6.63;6.03;;;26.90;99.90;;;;;;4958781;28;20406;-61
2021/09/26 12:48:15;;;;;;;7.87;7.17;;;27.30;99.90;;;;;;4958631;28;20956;-61
2021/09/26 12:50:44;;;;;;;7.17;6.47;;;26.60;99.90;;;;;;4958558;28;20871;-61
2021/09/26 12:53:14;;;;;;;8.93;8.23;;;26.90;99.90;;;;;;4964011;28;20900;-61
2021/09/26 12:55:42;;;;;;;9.00;8.20;;;26.80;99.90;;;;;;4978442;28;20449;-61